createdAt,value
2022-10-20T00:02:41.244Z,4.70
2022-10-20T00:05:26.572Z,4.50
2022-10-20T00:08:11.916Z,4.35
2022-10-20T00:10:57.695Z,5.00
2022-10-20T00:13:44.907Z,4.50
2022-10-20T00:16:32.086Z,4.88
2022-10-20T00:19:17.355Z,4.63
2022-10-20T00:22:02.941Z,4.35
2022-10-20T00:24:48.368Z,5.15
2022-10-20T00:27:34.025Z,4.80
2022-10-20T00:30:21.456Z,4.80
2022-10-20T00:33:09.124Z,4.55
2022-10-20T00:35:54.445Z,4.60
2022-10-20T00:38:40.071Z,4.32
2022-10-20T00:41:25.519Z,4.20
2022-10-20T00:44:44.737Z,5.03
2022-10-20T00:47:47.506Z,4.13
2022-10-20T00:50:38.822Z,4.95
2022-10-20T00:53:28.952Z,4.85
2022-10-20T00:56:14.867Z,4.88
2022-10-20T00:59:02.777Z,4.80
2022-10-20T01:01:49.052Z,4.28
2022-10-20T01:04:36.487Z,4.97
2022-10-20T01:07:22.690Z,5.10
2022-10-20T01:10:08.758Z,4.32
2022-10-20T01:13:02.945Z,4.85
2022-10-20T01:16:03.617Z,5.00
2022-10-20T01:19:03.431Z,5.22
2022-10-20T01:22:16.565Z,5.25
2022-10-20T01:27:52.914Z,5.90
2022-10-20T01:30:46.205Z,5.85
2022-10-20T01:33:58.373Z,5.43
2022-10-20T01:36:51.141Z,5.65
2022-10-20T01:42:26.537Z,5.55
2022-10-20T01:45:14.545Z,6.03
2022-10-20T01:48:04.901Z,5.85
2022-10-20T01:50:50.619Z,6.03
2022-10-20T01:53:36.732Z,6.22
2022-10-20T01:57:02.215Z,6.25
2022-10-20T02:00:12.009Z,6.30
2022-10-20T02:03:33.197Z,6.57
2022-10-20T02:06:52.604Z,6.43
2022-10-20T02:09:46.110Z,6.30
2022-10-20T02:12:37.818Z,6.63
2022-10-20T02:15:26.241Z,6.68
2022-10-20T02:18:15.690Z,6.63
2022-10-20T02:21:03.750Z,6.38
2022-10-20T02:23:51.316Z,6.70
2022-10-20T02:26:39.785Z,6.68
2022-10-20T02:29:32.880Z,6.15
2022-10-20T02:32:18.752Z,6.75
2022-10-20T02:35:14.746Z,6.63
2022-10-20T02:38:00.491Z,6.82
2022-10-20T02:40:46.381Z,6.95
2022-10-20T02:43:31.665Z,7.30
2022-10-20T02:46:17.451Z,7.03
2022-10-20T02:49:02.967Z,7.68
2022-10-20T02:51:48.544Z,7.13
2022-10-20T02:54:34.070Z,7.72
2022-10-20T02:57:19.506Z,7.43
2022-10-20T03:00:06.843Z,7.30
2022-10-20T03:02:52.252Z,7.30
2022-10-20T03:05:44.239Z,7.65
2022-10-20T03:08:29.668Z,8.35
2022-10-20T03:11:14.811Z,7.32
2022-10-20T03:14:00.247Z,7.47
2022-10-20T03:16:45.608Z,7.80
2022-10-20T03:19:31.071Z,7.60
2022-10-20T03:22:16.466Z,8.45
2022-10-20T03:25:02.003Z,7.68
2022-10-20T03:27:47.306Z,8.18
2022-10-20T03:30:32.828Z,7.80
2022-10-20T03:33:18.311Z,7.93
2022-10-20T03:36:04.695Z,8.40
2022-10-20T03:38:50.090Z,8.13
2022-10-20T03:41:35.726Z,7.88
2022-10-20T03:44:20.823Z,8.43
2022-10-20T03:47:06.680Z,8.10
2022-10-20T03:49:52.038Z,9.00
2022-10-20T03:52:37.672Z,8.23
2022-10-20T03:55:23.296Z,8.30
2022-10-20T03:58:08.943Z,8.20
2022-10-20T04:00:54.803Z,8.50
2022-10-20T04:03:40.643Z,8.68
2022-10-20T04:06:26.161Z,8.52
2022-10-20T04:09:11.646Z,8.57
2022-10-20T04:11:57.201Z,8.45
2022-10-20T04:14:42.622Z,9.27
2022-10-20T04:17:28.146Z,9.20
2022-10-20T04:20:13.596Z,9.30
2022-10-20T04:22:58.910Z,9.23
2022-10-20T04:25:48.571Z,8.52
2022-10-20T04:28:33.715Z,8.93
2022-10-20T04:31:19.208Z,9.43
2022-10-20T04:34:04.785Z,9.38
2022-10-20T04:36:50.503Z,9.40
2022-10-20T04:39:35.659Z,8.27
2022-10-20T04:42:21.319Z,8.43
2022-10-20T04:45:07.048Z,8.00
2022-10-20T04:47:52.840Z,9.25
2022-10-20T04:50:37.875Z,9.15
2022-10-20T04:53:26.498Z,7.72
2022-10-20T04:56:18.374Z,7.53
2022-10-20T04:59:07.329Z,8.17
2022-10-20T05:01:55.276Z,7.50
2022-10-20T05:04:40.908Z,7.80
2022-10-20T05:07:29.746Z,8.43
2022-10-20T05:10:14.939Z,7.05
2022-10-20T05:13:00.179Z,7.53
2022-10-20T05:15:51.777Z,7.05
2022-10-20T05:18:38.018Z,7.60
2022-10-20T05:21:26.778Z,7.63
2022-10-20T05:24:20.816Z,8.98
2022-10-20T05:27:07.823Z,7.82
2022-10-20T05:29:53.214Z,7.43
2022-10-20T05:32:38.848Z,7.35
2022-10-20T05:35:24.089Z,7.85
2022-10-20T05:38:09.679Z,7.50
2022-10-20T05:40:55.113Z,8.27
2022-10-20T05:43:41.129Z,7.68
2022-10-20T05:46:28.956Z,7.82
2022-10-20T05:49:16.615Z,8.45
2022-10-20T05:52:01.788Z,7.68
2022-10-20T05:54:47.882Z,7.72
2022-10-20T05:57:33.272Z,7.75
2022-10-20T06:00:29.691Z,8.25
2022-10-20T06:03:17.486Z,8.52
2022-10-20T06:06:04.791Z,8.05
2022-10-20T06:08:50.930Z,7.50
2022-10-20T06:11:39.301Z,8.20
2022-10-20T06:14:25.942Z,8.45
2022-10-20T06:17:11.328Z,8.88
2022-10-20T06:19:56.565Z,9.32
2022-10-20T06:22:42.080Z,8.63
2022-10-20T06:25:27.450Z,9.35
2022-10-20T06:28:12.901Z,8.93
2022-10-20T06:30:58.653Z,9.05
2022-10-20T06:33:44.889Z,8.88
2022-10-20T06:36:30.126Z,8.63
2022-10-20T06:39:18.566Z,8.77
2022-10-20T06:42:09.537Z,8.32
2022-10-20T06:45:03.955Z,8.60
2022-10-20T06:47:49.111Z,8.40
2022-10-20T06:50:35.037Z,8.10
2022-10-20T06:53:20.343Z,8.88
2022-10-20T06:56:08.184Z,8.15
2022-10-20T06:58:54.848Z,8.05
2022-10-20T07:01:40.584Z,9.25
2022-10-20T07:04:25.672Z,9.05
2022-10-20T07:07:11.431Z,8.02
2022-10-20T07:09:56.452Z,8.75
2022-10-20T07:12:42.039Z,8.85
2022-10-20T07:15:27.240Z,8.90
2022-10-20T07:18:12.795Z,9.30
2022-10-20T07:20:59.645Z,9.35
2022-10-20T07:23:45.125Z,8.40
2022-10-20T07:26:32.524Z,8.95
2022-10-20T07:29:17.829Z,8.48
2022-10-20T07:32:03.263Z,8.45
2022-10-20T07:34:48.700Z,9.18
2022-10-20T07:37:34.178Z,8.38
2022-10-20T07:40:19.794Z,8.05
2022-10-20T07:43:05.055Z,7.90
2022-10-20T07:45:50.663Z,8.25
2022-10-20T07:48:36.040Z,9.35
2022-10-20T07:51:34.543Z,8.15
2022-10-20T07:54:20.323Z,8.68
2022-10-20T07:57:05.636Z,8.63
2022-10-20T07:59:50.952Z,8.55
2022-10-20T08:02:36.601Z,7.63
2022-10-20T08:05:22.008Z,8.18
2022-10-20T08:08:07.622Z,7.90
2022-10-20T08:10:53.033Z,8.00
2022-10-20T08:13:40.983Z,8.45
2022-10-20T08:16:37.787Z,8.00
2022-10-20T08:19:33.587Z,7.78
2022-10-20T08:22:19.966Z,7.90
2022-10-20T08:25:05.954Z,8.30
2022-10-20T08:27:51.177Z,7.93
2022-10-20T08:30:37.815Z,7.75
2022-10-20T08:33:23.044Z,7.45
2022-10-20T08:36:13.668Z,7.93
2022-10-20T08:39:03.503Z,7.50
2022-10-20T08:42:07.473Z,7.78
2022-10-20T08:44:59.337Z,8.40
2022-10-20T08:47:46.923Z,8.00
2022-10-20T08:50:32.468Z,7.13
2022-10-20T08:53:23.977Z,7.60
2022-10-20T08:56:13.522Z,7.15
2022-10-20T08:59:00.117Z,6.70
2022-10-20T09:01:45.390Z,6.55
2022-10-20T09:04:39.728Z,6.80
2022-10-20T09:07:34.938Z,7.40
2022-10-20T09:10:37.063Z,7.50
2022-10-20T09:13:30.831Z,7.30
2022-10-20T09:16:41.737Z,7.55
2022-10-20T09:19:29.027Z,6.85
2022-10-20T09:22:16.105Z,7.32
2022-10-20T09:25:01.082Z,7.72
2022-10-20T09:27:46.997Z,7.63
2022-10-20T09:30:34.409Z,6.55
2022-10-20T09:33:33.505Z,6.60
2022-10-20T09:36:20.976Z,6.38
2022-10-20T09:39:06.229Z,5.80
2022-10-20T09:45:00.510Z,6.10
2022-10-20T09:47:48.353Z,6.78
2022-10-20T09:50:40.330Z,6.22
2022-10-20T09:53:33.235Z,6.82
2022-10-20T09:56:40.936Z,6.25
2022-10-20T09:59:34.732Z,7.05
2022-10-20T10:02:19.921Z,7.03
2022-10-20T10:05:19.191Z,7.18
2022-10-20T10:08:04.872Z,6.10
2022-10-20T10:11:02.399Z,6.30
2022-10-20T10:13:50.511Z,7.03
2022-10-20T10:16:41.871Z,7.20
2022-10-20T10:19:30.361Z,7.10
2022-10-20T10:22:15.724Z,7.07
2022-10-20T10:25:02.429Z,6.80
2022-10-20T10:28:08.742Z,8.00
2022-10-20T10:31:20.153Z,6.63
2022-10-20T10:34:31.898Z,6.45
2022-10-20T10:37:17.819Z,6.15
2022-10-20T10:40:14.223Z,6.40
2022-10-20T10:43:34.129Z,7.40
2022-10-20T10:46:37.142Z,6.72
2022-10-20T10:49:48.893Z,7.13
2022-10-20T10:53:22.040Z,7.80
2022-10-20T10:59:07.152Z,7.97
2022-10-20T11:02:14.253Z,8.50
2022-10-20T11:05:30.800Z,8.45
2022-10-20T11:08:32.994Z,9.57
2022-10-20T11:11:37.912Z,9.05
2022-10-20T11:14:49.186Z,9.60
2022-10-20T11:17:42.725Z,9.15
2022-10-20T11:20:32.510Z,9.93
2022-10-20T11:23:39.793Z,10.00
2022-10-20T11:26:37.840Z,9.63
2022-10-20T11:30:09.566Z,9.73
2022-10-20T11:32:54.645Z,9.02
2022-10-20T11:35:51.678Z,8.52
2022-10-20T11:39:04.568Z,8.98
2022-10-20T11:41:53.881Z,8.93
2022-10-20T11:44:44.598Z,10.48
2022-10-20T11:47:37.039Z,10.00
2022-10-20T11:50:23.317Z,10.57
2022-10-20T11:53:23.697Z,10.13
2022-10-20T11:56:39.780Z,9.70
2022-10-20T11:59:48.057Z,10.77
2022-10-20T12:02:58.660Z,10.93
2022-10-20T12:05:43.666Z,10.55
2022-10-20T12:08:57.455Z,10.40
2022-10-20T12:12:00.072Z,11.00
2022-10-20T12:14:55.557Z,10.27
2022-10-20T12:17:44.048Z,10.70
2022-10-20T12:20:29.452Z,10.48
2022-10-20T12:23:42.816Z,10.32
2022-10-20T12:26:33.090Z,10.88
2022-10-20T12:29:31.050Z,10.85
2022-10-20T12:32:25.508Z,10.77
2022-10-20T12:35:10.465Z,10.52
2022-10-20T12:38:02.483Z,10.10
2022-10-20T12:40:59.402Z,8.98
2022-10-20T12:44:00.595Z,8.65
2022-10-20T12:47:07.102Z,9.63
2022-10-20T12:50:04.844Z,8.20
2022-10-20T12:52:50.377Z,7.90
2022-10-20T12:55:41.748Z,8.05
2022-10-20T12:58:31.245Z,8.88
2022-10-20T13:01:16.970Z,9.02
2022-10-20T13:04:02.290Z,8.93
2022-10-20T13:06:48.672Z,8.27
2022-10-20T13:09:54.271Z,8.27
2022-10-20T13:12:40.590Z,9.27
2022-10-20T13:15:27.797Z,9.45
2022-10-20T13:18:13.624Z,9.60
2022-10-20T13:21:08.759Z,9.88
2022-10-20T13:24:01.084Z,10.10
2022-10-20T13:29:44.440Z,10.40
2022-10-20T13:32:53.825Z,11.07
2022-10-20T13:35:59.469Z,10.85
2022-10-20T13:39:09.719Z,12.10
2022-10-20T13:42:27.176Z,13.40
2022-10-20T13:45:15.669Z,11.65
2022-10-20T13:48:25.941Z,12.98
2022-10-20T13:51:20.712Z,13.52
2022-10-20T13:54:07.282Z,13.35
2022-10-20T13:56:54.301Z,12.65
2022-10-20T14:00:01.622Z,11.70
2022-10-20T14:03:06.372Z,11.98
2022-10-20T14:05:54.675Z,11.27
2022-10-20T14:08:44.145Z,12.00
2022-10-20T14:11:31.828Z,11.25
2022-10-20T14:14:21.864Z,10.48
2022-10-20T14:17:08.726Z,10.18
2022-10-20T14:20:16.230Z,9.38
2022-10-20T14:23:02.693Z,9.55
2022-10-20T14:25:50.491Z,9.57
2022-10-20T14:28:37.244Z,8.80
2022-10-20T14:31:24.410Z,9.45
2022-10-20T14:34:23.117Z,10.63
2022-10-20T14:37:28.765Z,11.80
2022-10-20T14:40:26.713Z,11.50
2022-10-20T14:43:19.408Z,10.07
2022-10-20T14:46:06.073Z,9.52
2022-10-20T14:48:51.847Z,10.63
2022-10-20T14:51:47.633Z,9.27
2022-10-20T14:54:39.298Z,9.88
2022-10-20T14:57:24.937Z,9.88
2022-10-20T15:00:33.032Z,8.88
2022-10-20T15:03:18.810Z,9.90
2022-10-20T15:06:04.468Z,9.18
2022-10-20T15:08:57.551Z,9.05
2022-10-20T15:11:43.336Z,8.52
2022-10-20T15:14:28.828Z,8.63
2022-10-20T15:17:38.345Z,9.25
2022-10-20T15:20:32.898Z,9.55
2022-10-20T15:23:20.554Z,8.95
2022-10-20T15:26:14.237Z,10.57
2022-10-20T15:28:59.544Z,9.88
2022-10-20T15:31:45.093Z,10.10
2022-10-20T15:34:30.745Z,8.73
2022-10-20T15:37:16.260Z,9.90
2022-10-20T15:40:01.880Z,9.80
2022-10-20T15:42:48.218Z,9.27
2022-10-20T15:45:40.534Z,9.02
2022-10-20T15:48:26.226Z,10.50
2022-10-20T15:51:22.564Z,11.15
2022-10-20T15:54:08.543Z,10.90
2022-10-20T15:56:53.723Z,10.07
2022-10-20T15:59:39.048Z,10.15
2022-10-20T16:02:24.444Z,10.88
2022-10-20T16:05:10.078Z,10.32
2022-10-20T16:07:55.985Z,10.45
2022-10-20T16:10:43.767Z,12.30
2022-10-20T16:13:29.550Z,10.18
2022-10-20T16:16:17.988Z,9.60
2022-10-20T16:19:03.783Z,10.93
2022-10-20T16:21:49.193Z,11.73
2022-10-20T16:24:34.583Z,12.68
2022-10-20T16:27:20.303Z,12.32
2022-10-20T16:30:07.201Z,12.55
2022-10-20T16:32:52.824Z,12.57
2022-10-20T16:35:43.050Z,13.18
2022-10-20T16:38:28.527Z,14.00
2022-10-20T16:41:15.713Z,14.07
2022-10-20T16:44:01.310Z,15.30
2022-10-20T16:46:46.975Z,13.10
2022-10-20T16:49:32.443Z,13.02
2022-10-20T16:52:18.030Z,13.68
2022-10-20T16:55:03.554Z,13.05
2022-10-20T16:57:49.053Z,13.95
2022-10-20T17:00:34.508Z,15.45
2022-10-20T17:03:20.430Z,13.85
2022-10-20T17:06:07.538Z,15.23
2022-10-20T17:08:53.926Z,15.30
2022-10-20T17:11:39.907Z,15.05
2022-10-20T17:14:25.661Z,16.55
2022-10-20T17:17:10.830Z,14.50
2022-10-20T17:19:56.251Z,15.60
2022-10-20T17:22:41.617Z,15.70
2022-10-20T17:25:27.136Z,14.48
2022-10-20T17:28:12.697Z,15.10
2022-10-20T17:30:58.404Z,14.35
2022-10-20T17:33:44.684Z,14.27
2022-10-20T17:36:30.513Z,15.80
2022-10-20T17:39:17.204Z,17.55
2022-10-20T17:42:02.664Z,15.88
2022-10-20T17:44:47.995Z,16.98
2022-10-20T17:47:33.883Z,17.45
2022-10-20T17:50:19.468Z,17.70
2022-10-20T17:53:04.849Z,16.80
2022-10-20T17:55:50.286Z,16.90
2022-10-20T17:58:36.221Z,17.88
2022-10-20T18:01:23.539Z,15.93
2022-10-20T18:04:14.751Z,17.55
2022-10-20T18:07:00.031Z,16.02
2022-10-20T18:09:45.438Z,16.08
2022-10-20T18:12:30.849Z,15.35
2022-10-20T18:15:16.297Z,16.60
2022-10-20T18:18:01.858Z,16.23
2022-10-20T18:20:57.378Z,16.27
2022-10-20T18:23:45.565Z,15.88
2022-10-20T18:26:32.971Z,16.85
2022-10-20T18:29:18.197Z,16.77
2022-10-20T18:32:03.870Z,17.15
2022-10-20T18:34:49.203Z,15.82
2022-10-20T18:37:34.734Z,14.52
2022-10-20T18:40:21.753Z,14.85
2022-10-20T18:43:06.829Z,13.65
2022-10-20T18:45:52.771Z,13.73
2022-10-20T18:48:39.613Z,13.45
2022-10-20T18:51:24.807Z,13.13
2022-10-20T18:54:11.040Z,12.35
2022-10-20T18:56:56.322Z,14.30
2022-10-20T18:59:41.875Z,14.52
2022-10-20T19:02:28.364Z,16.08
2022-10-20T19:05:13.676Z,14.63
2022-10-20T19:07:58.965Z,14.98
2022-10-20T19:10:44.280Z,12.93
2022-10-20T19:13:30.824Z,12.73
2022-10-20T19:16:19.475Z,13.70
2022-10-20T19:19:07.189Z,13.25
2022-10-20T19:21:52.296Z,13.07
2022-10-20T19:24:40.477Z,12.95
2022-10-20T19:27:26.902Z,12.40
2022-10-20T19:30:12.498Z,12.80
2022-10-20T19:32:58.586Z,13.52
2022-10-20T19:35:43.942Z,13.23
2022-10-20T19:38:29.518Z,13.10
2022-10-20T19:41:16.037Z,11.90
2022-10-20T19:44:02.245Z,12.30
2022-10-20T19:46:50.224Z,13.43
2022-10-20T19:49:35.795Z,11.80
2022-10-20T19:52:21.417Z,10.55
2022-10-20T19:55:07.187Z,11.57
2022-10-20T19:57:53.115Z,11.23
2022-10-20T20:00:43.041Z,10.50
2022-10-20T20:03:28.452Z,11.45
2022-10-20T20:06:20.056Z,10.85
2022-10-20T20:09:08.223Z,10.97
2022-10-20T20:11:53.513Z,12.20
2022-10-20T20:14:39.178Z,10.75
2022-10-20T20:17:24.583Z,11.95
2022-10-20T20:20:10.101Z,11.23
2022-10-20T20:22:55.507Z,12.95
2022-10-20T20:25:43.691Z,11.82
2022-10-20T20:28:28.920Z,11.50
2022-10-20T20:31:14.329Z,12.82
2022-10-20T20:33:59.731Z,13.25
2022-10-20T20:36:45.200Z,12.30
2022-10-20T20:39:30.549Z,11.60
2022-10-20T20:42:16.169Z,12.57
2022-10-20T20:45:02.644Z,11.70
2022-10-20T20:47:48.218Z,10.88
2022-10-20T20:50:34.093Z,11.57
2022-10-20T20:53:19.758Z,12.27
2022-10-20T20:56:10.601Z,11.85
2022-10-20T20:58:55.988Z,10.45
2022-10-20T21:01:42.020Z,9.73
2022-10-20T21:04:30.565Z,10.35
2022-10-20T21:07:16.164Z,11.70
2022-10-20T21:10:01.721Z,11.52
2022-10-20T21:12:46.797Z,11.65
2022-10-20T21:15:32.319Z,13.25
2022-10-20T21:18:17.856Z,12.55
2022-10-20T21:21:08.512Z,11.63
2022-10-20T21:23:55.381Z,11.70
2022-10-20T21:26:40.886Z,10.60
2022-10-20T21:29:26.348Z,10.25
2022-10-20T21:32:11.802Z,11.15
2022-10-20T21:34:57.281Z,10.48
2022-10-20T21:37:42.687Z,10.48
2022-10-20T21:40:27.973Z,9.52
2022-10-20T21:43:14.284Z,9.63
2022-10-20T21:46:17.653Z,9.52
2022-10-20T21:49:14.140Z,8.82
2022-10-20T21:51:59.422Z,9.70
2022-10-20T21:54:44.709Z,10.85
2022-10-20T21:57:30.125Z,10.45
2022-10-20T22:00:15.464Z,10.65
2022-10-20T22:03:00.749Z,10.90
2022-10-20T22:05:45.975Z,10.60
2022-10-20T22:08:33.366Z,11.20
2022-10-20T22:11:22.002Z,11.05
2022-10-20T22:14:07.806Z,11.00
2022-10-20T22:16:55.284Z,12.35
2022-10-20T22:19:40.653Z,12.15
2022-10-20T22:22:26.049Z,12.10
2022-10-20T22:25:11.431Z,11.63
2022-10-20T22:27:56.980Z,10.15
2022-10-20T22:30:42.276Z,11.43
2022-10-20T22:33:27.835Z,11.55
2022-10-20T22:36:13.321Z,11.05
2022-10-20T22:38:58.739Z,11.02
2022-10-20T22:41:44.112Z,11.68
2022-10-20T22:44:29.596Z,11.23
2022-10-20T22:47:15.070Z,10.55
2022-10-20T22:50:00.463Z,11.30
2022-10-20T22:52:46.004Z,12.25
2022-10-20T22:55:31.375Z,12.02
2022-10-20T22:58:16.789Z,12.80
2022-10-20T23:01:14.456Z,11.73
2022-10-20T23:04:00.127Z,12.15
2022-10-20T23:06:45.369Z,12.43
2022-10-20T23:09:31.388Z,12.55
2022-10-20T23:12:16.958Z,12.55
2022-10-20T23:15:02.482Z,12.07
2022-10-20T23:17:48.128Z,12.10
2022-10-20T23:20:33.275Z,11.82
2022-10-20T23:23:18.566Z,11.95
2022-10-20T23:26:05.822Z,10.55
2022-10-20T23:28:51.245Z,11.23
2022-10-20T23:31:36.616Z,10.13
2022-10-20T23:34:22.334Z,10.77
2022-10-20T23:37:07.642Z,11.32
2022-10-20T23:39:53.165Z,10.40
2022-10-20T23:42:38.685Z,10.68
2022-10-20T23:45:24.126Z,10.52
2022-10-20T23:48:09.755Z,10.82
2022-10-20T23:50:55.494Z,10.70
2022-10-20T23:53:40.642Z,10.32
2022-10-20T23:56:26.043Z,10.15
2022-10-20T23:59:11.458Z,12.65
